Time;durP1;ratioP1;P1;durP2;ratioP2;P2;SDS_P1;SDS_P2;PMS_P1;PMS_P2;Temp;Humidity;BMP_temperature;BMP_pressure;BME280_temperature;BME280_humidity;BME280_pressure;Samples;Min_cycle;Max_cycle;Signal;HPM_P1;HPM_P2
2023/02/17 00:00:15;;;;;;;79.88;16.95;;;11.10;99.90;;;;;;4992326;28;20188;-82
2023/02/17 00:02:47;;;;;;;74.35;17.30;;;11.00;99.90;;;;;;5011211;28;20186;-82
2023/02/17 00:05:13;;;;;;;82.30;16.55;;;11.00;99.90;;;;;;5008802;28;20178;-82
2023/02/17 00:07:39;;;;;;;72.65;16.75;;;11.00;99.90;;;;;;4991916;28;20186;-83
2023/02/17 00:10:06;;;;;;;73.10;14.52;;;11.10;99.90;;;;;;4992538;28;20213;-82
2023/02/17 00:12:38;;;;;;;77.18;16.65;;;11.00;99.90;;;;;;5009364;28;20227;-83
2023/02/17 00:15:05;;;;;;;74.55;15.07;;;11.10;99.90;;;;;;4991878;28;20163;-83
2023/02/17 00:17:33;;;;;;;77.80;16.80;;;11.10;99.90;;;;;;4992667;28;20164;-84
2023/02/17 00:20:07;;;;;;;75.05;14.98;;;11.20;99.90;;;;;;4992886;28;20666;-84
2023/02/17 00:22:39;;;;;;;72.55;15.02;;;11.30;99.90;;;;;;4991108;28;20201;-82
2023/02/17 00:25:06;;;;;;;71.65;14.40;;;11.20;99.90;;;;;;5009585;28;20238;-85
2023/02/17 00:27:35;;;;;;;73.88;14.90;;;11.20;99.90;;;;;;4992259;28;20174;-84
2023/02/17 00:30:01;;;;;;;71.35;13.95;;;11.30;99.90;;;;;;4992173;28;20221;-83
2023/02/17 00:32:27;;;;;;;72.50;14.60;;;11.30;99.90;;;;;;4992546;28;20202;-83
2023/02/17 00:35:01;;;;;;;73.23;14.23;;;11.30;99.90;;;;;;5008876;28;20426;-83
2023/02/17 00:37:30;;;;;;;70.40;14.07;;;11.30;99.90;;;;;;4990514;28;20413;-82
2023/02/17 00:39:59;;;;;;;71.80;16.50;;;11.30;99.90;;;;;;4991912;28;20174;-83
2023/02/17 00:42:25;;;;;;;73.38;14.48;;;11.30;99.90;;;;;;5008917;28;20582;-83
2023/02/17 00:44:51;;;;;;;72.60;16.63;;;11.30;99.90;;;;;;4992160;28;20193;-83
2023/02/17 00:47:20;;;;;;;72.80;15.03;;;11.30;99.90;;;;;;5011669;28;20549;-82
2023/02/17 00:49:45;;;;;;;70.80;13.35;;;11.30;99.90;;;;;;5012691;28;20442;-85
2023/02/17 00:52:24;;;;;;;73.37;15.90;;;11.30;99.90;;;;;;5012409;28;20191;-83
2023/02/17 00:54:56;;;;;;;70.25;13.00;;;11.30;99.90;;;;;;4995198;28;20402;-83
2023/02/17 00:57:25;;;;;;;70.32;13.40;;;11.30;99.90;;;;;;4995312;28;20167;-83
2023/02/17 00:59:53;;;;;;;69.93;14.52;;;11.30;99.90;;;;;;4995091;28;20171;-84
2023/02/17 01:02:27;;;;;;;72.65;15.50;;;11.30;99.90;;;;;;5012577;28;20229;-84
2023/02/17 01:05:02;;;;;;;71.68;13.57;;;11.30;99.90;;;;;;4993156;28;20183;-83
2023/02/17 01:07:30;;;;;;;70.65;14.52;;;11.30;99.90;;;;;;4995459;28;20173;-83
2023/02/17 01:09:56;;;;;;;70.80;13.43;;;11.30;99.90;;;;;;4994809;28;20194;-83
2023/02/17 01:12:26;;;;;;;69.47;11.90;;;11.40;99.90;;;;;;4994185;28;20666;-83
2023/02/17 01:14:57;;;;;;;70.18;13.27;;;11.40;99.90;;;;;;5012270;28;20904;-83
2023/02/17 01:17:26;;;;;;;71.55;14.20;;;11.40;99.90;;;;;;5012366;28;20178;-83
2023/02/17 01:19:52;;;;;;;69.03;12.73;;;11.40;99.90;;;;;;5009680;28;20193;-82
2023/02/17 01:22:21;;;;;;;70.10;13.97;;;11.40;99.90;;;;;;5011977;28;20187;-83
2023/02/17 01:24:47;;;;;;;69.95;12.75;;;11.40;99.90;;;;;;4995429;28;20418;-84
2023/02/17 01:27:16;;;;;;;71.03;13.65;;;11.40;99.90;;;;;;4994716;28;20221;-83
2023/02/17 01:29:45;;;;;;;70.38;14.60;;;11.40;99.90;;;;;;4994688;28;20166;-84
2023/02/17 01:32:13;;;;;;;70.38;14.32;;;11.30;99.90;;;;;;5012576;28;20190;-84
2023/02/17 01:34:42;;;;;;;71.68;12.30;;;11.40;99.90;;;;;;5011400;28;20258;-82
2023/02/17 01:37:14;;;;;;;69.72;11.95;;;11.40;99.90;;;;;;4994399;28;20167;-84
2023/02/17 01:39:43;;;;;;;72.13;13.52;;;11.40;99.90;;;;;;5010244;28;20163;-83
2023/02/17 01:42:18;;;;;;;69.68;13.48;;;11.40;99.90;;;;;;5012296;28;20186;-83
2023/02/17 01:45:18;;;;;;;69.88;13.75;;;11.40;99.90;;;;;;5011685;28;20217;-84
2023/02/17 01:48:01;;;;;;;68.60;12.23;;;11.40;99.90;;;;;;5011170;28;20170;-84
2023/02/17 01:50:43;;;;;;;70.97;13.30;;;11.40;99.90;;;;;;5010866;28;20186;-84
2023/02/17 01:53:10;;;;;;;70.68;11.80;;;11.50;99.90;;;;;;5010587;28;20665;-83
2023/02/17 01:55:39;;;;;;;69.75;12.48;;;11.50;99.90;;;;;;5011228;28;20159;-83
2023/02/17 01:58:07;;;;;;;70.72;13.90;;;11.40;99.90;;;;;;4993748;28;20186;-83
2023/02/17 02:00:39;;;;;;;70.57;13.10;;;11.40;99.90;;;;;;5010441;28;20171;-84
2023/02/17 02:03:31;;;;;;;68.97;13.15;;;11.50;99.90;;;;;;4994157;28;20171;-83
2023/02/17 02:05:59;;;;;;;70.10;12.43;;;11.50;99.90;;;;;;4994254;28;20170;-83
2023/02/17 02:08:27;;;;;;;70.45;12.93;;;11.50;99.90;;;;;;4994371;28;20178;-83
2023/02/17 02:10:56;;;;;;;70.22;12.63;;;11.40;99.90;;;;;;5010804;28;20205;-84
2023/02/17 02:13:23;;;;;;;72.32;15.10;;;11.50;99.90;;;;;;5011794;28;20637;-83
2023/02/17 02:16:10;;;;;;;72.30;13.50;;;11.50;99.90;;;;;;5010918;28;20172;-83
2023/02/17 02:18:51;;;;;;;73.15;13.85;;;11.50;99.90;;;;;;5011104;28;20143;-83
2023/02/17 02:21:39;;;;;;;70.93;14.43;;;11.50;99.90;;;;;;5010009;28;20206;-84
2023/02/17 02:24:45;;;;;;;70.95;11.98;;;11.40;99.90;;;;;;4993913;28;20174;-83
2023/02/17 02:27:41;;;;;;;72.20;13.65;;;11.50;99.90;;;;;;4931274;29;20184;-83
2023/02/17 02:30:29;;;;;;;70.20;12.75;;;11.50;99.90;;;;;;4993533;28;20683;-83
2023/02/17 02:33:12;;;;;;;69.90;11.80;;;11.50;99.90;;;;;;4992616;28;20265;-83
2023/02/17 02:35:53;;;;;;;71.40;14.80;;;11.50;99.90;;;;;;5009578;28;20200;-83
2023/02/17 02:38:40;;;;;;;73.18;13.35;;;11.40;99.90;;;;;;5010561;28;20146;-83
2023/02/17 02:41:21;;;;;;;72.05;13.85;;;11.40;99.90;;;;;;4993060;28;20186;-83
2023/02/17 02:43:53;;;;;;;75.68;13.30;;;11.40;99.90;;;;;;4993759;28;20171;-83
2023/02/17 02:46:19;;;;;;;72.18;14.68;;;11.40;99.90;;;;;;5009711;28;20206;-84
2023/02/17 02:48:46;;;;;;;69.97;12.97;;;11.50;99.90;;;;;;4993310;28;20175;-82
2023/02/17 02:51:31;;;;;;;73.50;13.38;;;11.50;99.90;;;;;;5009963;28;20465;-84
2023/02/17 02:54:10;;;;;;;72.03;14.07;;;11.40;99.90;;;;;;4991732;28;20214;-83
2023/02/17 02:57:03;;;;;;;73.50;15.20;;;11.40;99.90;;;;;;5009907;28;20282;-83
2023/02/17 02:59:43;;;;;;;70.38;13.10;;;11.30;99.90;;;;;;4991006;28;20177;-83
2023/02/17 03:02:28;;;;;;;75.30;15.80;;;11.40;99.90;;;;;;5009999;28;20192;-84
2023/02/17 03:05:38;;;;;;;74.60;14.77;;;11.30;99.90;;;;;;5009021;28;20172;-83
2023/02/17 03:08:53;;;;;;;72.30;13.65;;;11.40;99.90;;;;;;4992608;28;20166;-83
2023/02/17 03:11:32;;;;;;;69.80;12.05;;;11.30;99.90;;;;;;4941942;28;20188;-82
2023/02/17 03:14:11;;;;;;;74.28;13.43;;;11.30;99.90;;;;;;5009553;28;20692;-83
2023/02/17 03:16:43;;;;;;;71.40;14.90;;;11.20;99.90;;;;;;5008921;28;20261;-83
2023/02/17 03:19:10;;;;;;;70.85;12.60;;;11.20;99.90;;;;;;4993052;28;20166;-83
2023/02/17 03:21:47;;;;;;;73.10;14.20;;;11.30;99.90;;;;;;5008940;28;20187;-83
2023/02/17 03:24:16;;;;;;;71.85;15.85;;;11.30;99.90;;;;;;5009124;28;20151;-82
2023/02/17 03:26:50;;;;;;;71.10;13.68;;;11.30;99.90;;;;;;5008313;28;20174;-83
2023/02/17 03:29:25;;;;;;;72.53;13.63;;;11.30;99.90;;;;;;5009568;28;20162;-82
2023/02/17 03:31:54;;;;;;;71.28;13.90;;;11.30;99.90;;;;;;5008228;28;20201;-82
2023/02/17 03:34:25;;;;;;;75.13;15.65;;;11.20;99.90;;;;;;4991538;28;20694;-84
2023/02/17 03:36:51;;;;;;;73.70;16.00;;;11.30;99.90;;;;;;5010368;28;20162;-83
2023/02/17 03:39:16;;;;;;;74.10;15.70;;;11.30;99.90;;;;;;5009633;28;20223;-83
2023/02/17 03:41:42;;;;;;;73.00;14.43;;;11.30;99.90;;;;;;5009507;28;20249;-82
2023/02/17 03:44:08;;;;;;;69.27;13.20;;;11.30;99.90;;;;;;5009989;28;20163;-83
2023/02/17 03:46:43;;;;;;;70.70;13.07;;;11.30;99.90;;;;;;4992324;28;20425;-83
2023/02/17 03:49:09;;;;;;;70.53;15.05;;;11.30;99.90;;;;;;5087404;22;20252;-85
2023/02/17 03:51:38;;;;;;;70.50;13.90;;;11.30;99.90;;;;;;5000934;28;20592;-85
2023/02/17 03:54:04;;;;;;;70.40;13.70;;;11.30;99.90;;;;;;5018345;28;20192;-84
2023/02/17 03:56:31;;;;;;;71.93;16.17;;;11.30;99.90;;;;;;5017870;28;20244;-84
2023/02/17 03:58:56;;;;;;;71.05;13.48;;;11.30;99.90;;;;;;5018255;28;20236;-84
2023/02/17 04:01:22;;;;;;;73.20;15.50;;;11.30;99.90;;;;;;5000966;28;20186;-84
2023/02/17 04:03:48;;;;;;;71.30;14.63;;;11.30;99.90;;;;;;5018348;28;20166;-84
2023/02/17 04:06:14;;;;;;;73.03;15.03;;;11.30;99.90;;;;;;5000520;28;20467;-85
2023/02/17 04:08:40;;;;;;;72.30;14.87;;;11.30;99.90;;;;;;5001144;28;20421;-85
2023/02/17 04:11:08;;;;;;;72.30;15.87;;;11.30;99.90;;;;;;5018564;28;20181;-84
2023/02/17 04:13:34;;;;;;;69.72;13.55;;;11.40;99.90;;;;;;5000322;28;20497;-84
2023/02/17 04:16:00;;;;;;;71.40;15.40;;;11.40;99.90;;;;;;5017771;28;20529;-84
2023/02/17 04:18:27;;;;;;;69.83;13.10;;;11.40;99.90;;;;;;5018583;28;20173;-84
2023/02/17 04:20:53;;;;;;;70.65;14.02;;;11.40;99.90;;;;;;5021751;28;20162;-84
2023/02/17 04:23:19;;;;;;;70.22;12.10;;;11.40;99.90;;;;;;5005123;28;20266;-84
2023/02/17 04:25:46;;;;;;;72.07;15.68;;;11.40;99.90;;;;;;5020508;28;20173;-84
2023/02/17 04:28:14;;;;;;;71.00;14.75;;;11.40;99.90;;;;;;5004578;28;20181;-84
2023/02/17 04:30:43;;;;;;;70.53;14.77;;;11.40;99.90;;;;;;5003958;28;20546;-84
2023/02/17 04:33:09;;;;;;;71.15;12.90;;;11.40;99.90;;;;;;5021981;28;20262;-85
2023/02/17 04:35:35;;;;;;;69.60;11.70;;;11.40;99.90;;;;;;5020911;28;20233;-85
2023/02/17 04:38:00;;;;;;;69.57;10.73;;;11.40;99.90;;;;;;5021935;28;20400;-85
2023/02/17 04:40:26;;;;;;;73.00;11.73;;;11.40;99.90;;;;;;5004961;28;20545;-84
2023/02/17 04:42:52;;;;;;;70.00;10.83;;;11.40;99.90;;;;;;5021796;28;20605;-84
2023/02/17 04:45:18;;;;;;;68.20;10.40;;;11.40;99.90;;;;;;5021907;28;20224;-85
2023/02/17 04:47:44;;;;;;;68.78;9.48;;;11.50;99.90;;;;;;5021202;28;20177;-84
2023/02/17 04:50:10;;;;;;;71.13;12.83;;;11.50;99.90;;;;;;5020931;28;20205;-85
2023/02/17 04:52:36;;;;;;;69.63;10.88;;;11.50;99.90;;;;;;5003965;28;20195;-85
2023/02/17 04:55:02;;;;;;;70.10;11.50;;;11.50;99.90;;;;;;5021367;28;20529;-84
2023/02/17 04:57:28;;;;;;;71.35;10.73;;;11.40;99.90;;;;;;5004080;28;20412;-84
2023/02/17 04:59:54;;;;;;;69.00;10.63;;;11.40;99.90;;;;;;5021498;28;20180;-85
2023/02/17 05:02:19;;;;;;;73.50;13.00;;;11.40;99.90;;;;;;5021161;28;20268;-84
2023/02/17 05:04:45;;;;;;;69.57;11.70;;;11.40;99.90;;;;;;5021028;28;20523;-85
2023/02/17 05:07:11;;;;;;;71.80;12.40;;;11.40;99.90;;;;;;5021220;28;20170;-84
2023/02/17 05:09:36;;;;;;;71.23;13.47;;;11.40;99.90;;;;;;5021771;28;20207;-84
2023/02/17 05:12:04;;;;;;;70.90;12.77;;;11.30;99.90;;;;;;5020257;28;20191;-84
2023/02/17 05:14:30;;;;;;;69.28;12.30;;;11.30;99.90;;;;;;5020853;28;20189;-84
2023/02/17 05:16:55;;;;;;;68.17;11.23;;;11.30;99.90;;;;;;5020843;28;20499;-84
2023/02/17 05:19:21;;;;;;;71.93;10.00;;;11.30;99.90;;;;;;5020156;28;20170;-85
2023/02/17 05:21:46;;;;;;;74.17;13.10;;;11.30;99.90;;;;;;5019837;28;20194;-84
2023/02/17 05:24:12;;;;;;;70.07;12.17;;;11.30;99.90;;;;;;5021280;28;20166;-84
2023/02/17 05:26:38;;;;;;;68.60;10.57;;;11.30;99.90;;;;;;5021359;28;20174;-84
2023/02/17 05:29:03;;;;;;;71.70;11.40;;;11.30;99.90;;;;;;5021257;28;20165;-85
2023/02/17 05:31:29;;;;;;;71.13;11.30;;;11.30;99.90;;;;;;5020267;28;20190;-84
2023/02/17 05:33:55;;;;;;;70.93;12.00;;;11.30;99.90;;;;;;5020020;28;20191;-84
2023/02/17 05:36:21;;;;;;;70.00;11.17;;;11.30;99.90;;;;;;5020656;28;20165;-84
2023/02/17 05:38:48;;;;;;;71.00;11.60;;;11.30;99.90;;;;;;5020563;28;20166;-84
2023/02/17 05:41:34;;;;;;;71.07;12.98;;;11.30;99.90;;;;;;5020201;28;20475;-84
2023/02/17 05:43:59;;;;;;;72.25;12.25;;;11.40;99.90;;;;;;5020627;28;20261;-84
2023/02/17 05:46:25;;;;;;;72.20;12.80;;;11.30;99.90;;;;;;5020782;28;20197;-85
2023/02/17 05:48:51;;;;;;;73.13;12.37;;;11.30;99.90;;;;;;5019350;28;20719;-85
2023/02/17 05:51:16;;;;;;;70.37;11.03;;;11.40;99.90;;;;;;5020721;28;20305;-84
2023/02/17 05:53:43;;;;;;;71.87;13.03;;;11.40;99.90;;;;;;5019100;28;20190;-84
2023/02/17 05:56:09;;;;;;;72.15;11.88;;;11.30;99.90;;;;;;5020669;28;20166;-84
2023/02/17 05:58:34;;;;;;;69.27;10.80;;;11.30;99.90;;;;;;5020446;28;20173;-84
2023/02/17 06:01:00;;;;;;;70.47;11.07;;;11.40;99.90;;;;;;5020558;28;20185;-84
2023/02/17 06:03:26;;;;;;;68.63;11.33;;;11.50;99.90;;;;;;5020471;28;20182;-85
2023/02/17 06:05:51;;;;;;;69.50;10.80;;;11.50;99.90;;;;;;5019877;28;20217;-85
2023/02/17 06:08:17;;;;;;;69.60;11.67;;;11.40;99.90;;;;;;5002909;28;20414;-84
2023/02/17 06:10:44;;;;;;;71.70;12.50;;;11.40;99.90;;;;;;5019146;28;20169;-84
2023/02/17 06:13:10;;;;;;;69.65;10.88;;;11.50;99.90;;;;;;5020179;28;20192;-84
2023/02/17 06:15:39;;;;;;;69.43;11.10;;;11.50;99.90;;;;;;5018937;28;20170;-84
2023/02/17 06:18:05;;;;;;;69.30;10.70;;;11.50;99.90;;;;;;5020298;28;20168;-85
2023/02/17 06:20:30;;;;;;;69.67;11.83;;;11.50;99.90;;;;;;5020247;28;20249;-84
2023/02/17 06:22:56;;;;;;;67.67;11.20;;;11.60;99.90;;;;;;5020281;28;20201;-84
2023/02/17 06:25:22;;;;;;;68.17;11.67;;;11.60;99.90;;;;;;5019843;28;20217;-83
2023/02/17 06:27:47;;;;;;;69.07;10.47;;;11.60;99.90;;;;;;5020858;28;20170;-84
2023/02/17 06:30:13;;;;;;;69.37;10.37;;;11.70;99.90;;;;;;5020066;28;20205;-83
2023/02/17 06:32:39;;;;;;;69.20;11.07;;;11.70;99.90;;;;;;5019592;28;20197;-84
2023/02/17 06:35:05;;;;;;;69.60;10.70;;;11.70;99.90;;;;;;5017980;28;20166;-84
2023/02/17 06:37:31;;;;;;;68.00;10.37;;;11.70;99.90;;;;;;5018568;28;20170;-84
2023/02/17 06:39:56;;;;;;;68.90;12.30;;;11.70;99.90;;;;;;5020146;28;20443;-84
2023/02/17 06:42:22;;;;;;;68.60;10.70;;;11.70;99.90;;;;;;5018773;28;20189;-84
2023/02/17 06:44:48;;;;;;;67.77;10.60;;;11.70;99.90;;;;;;5019530;28;20170;-84
2023/02/17 06:47:13;;;;;;;68.10;11.40;;;11.70;99.90;;;;;;5019021;28;20653;-84
2023/02/17 06:49:39;;;;;;;68.50;11.00;;;11.70;99.90;;;;;;5018986;28;20169;-83
2023/02/17 06:52:05;;;;;;;68.53;9.07;;;11.80;99.90;;;;;;5018872;28;20182;-83
2023/02/17 06:54:31;;;;;;;66.87;9.07;;;11.70;99.90;;;;;;5019530;28;20474;-82
2023/02/17 06:56:57;;;;;;;68.47;11.50;;;11.80;99.90;;;;;;5001309;28;20958;-83
2023/02/17 06:59:22;;;;;;;70.17;11.70;;;11.80;99.90;;;;;;5001048;28;20609;-82
2023/02/17 07:01:49;;;;;;;69.67;12.00;;;11.80;99.90;;;;;;5000309;28;20186;-83
2023/02/17 07:04:15;;;;;;;69.88;11.70;;;11.80;99.90;;;;;;5017726;28;20408;-83
2023/02/17 07:06:41;;;;;;;68.82;10.15;;;11.80;99.90;;;;;;5018501;28;20169;-83
2023/02/17 07:09:07;;;;;;;67.38;9.23;;;11.80;99.90;;;;;;5018658;28;20166;-82
2023/02/17 07:11:32;;;;;;;68.73;11.27;;;11.80;99.90;;;;;;5018660;28;20192;-82
2023/02/17 07:13:59;;;;;;;67.47;10.27;;;11.80;99.90;;;;;;5017134;28;20193;-83
2023/02/17 07:16:24;;;;;;;69.03;10.15;;;11.80;99.90;;;;;;5017664;28;20169;-83
2023/02/17 07:18:51;;;;;;;69.70;10.57;;;11.90;99.90;;;;;;5017588;28;20530;-83
2023/02/17 07:21:16;;;;;;;75.32;9.00;;;11.80;99.90;;;;;;5000581;28;20448;-83
2023/02/17 07:23:42;;;;;;;69.70;10.43;;;11.90;99.90;;;;;;5001337;28;20521;-83
2023/02/17 07:26:10;;;;;;;68.10;8.00;;;11.90;99.90;;;;;;5000383;28;20173;-83
2023/02/17 07:28:36;;;;;;;69.50;8.50;;;11.90;99.90;;;;;;5000762;28;20170;-83
2023/02/17 07:31:11;;;;;;;68.82;8.52;;;11.90;99.90;;;;;;5000880;28;20190;-83
2023/02/17 07:33:37;;;;;;;71.72;9.82;;;11.90;99.90;;;;;;5018075;28;20185;-83
2023/02/17 07:36:11;;;;;;;68.80;7.85;;;12.00;99.90;;;;;;5019120;28;20687;-84
2023/02/17 07:38:38;;;;;;;72.80;9.50;;;12.10;99.90;;;;;;5019174;28;20158;-83
2023/02/17 07:41:09;;;;;;;68.53;8.27;;;12.10;99.90;;;;;;5019158;28;20228;-83
2023/02/17 07:43:35;;;;;;;68.95;8.90;;;12.10;99.90;;;;;;5019167;28;20494;-83
2023/02/17 07:46:01;;;;;;;68.57;9.35;;;12.20;99.90;;;;;;5000830;28;20169;-83
2023/02/17 07:48:27;;;;;;;69.05;8.73;;;12.10;99.90;;;;;;5000819;28;20189;-83
2023/02/17 07:50:53;;;;;;;68.53;9.37;;;12.10;99.90;;;;;;5001485;28;20240;-84
2023/02/17 07:53:19;;;;;;;74.30;8.90;;;12.10;99.90;;;;;;5000696;28;20225;-83
2023/02/17 07:55:44;;;;;;;67.77;8.40;;;12.20;99.90;;;;;;5022126;28;20401;-83
2023/02/17 07:58:10;;;;;;;66.57;7.17;;;12.20;99.90;;;;;;5022910;28;20230;-83
2023/02/17 08:00:36;;;;;;;68.17;7.90;;;12.30;99.90;;;;;;5004543;28;20633;-83
2023/02/17 08:03:02;;;;;;;68.00;7.67;;;12.30;99.90;;;;;;5022774;28;20190;-84
2023/02/17 08:05:27;;;;;;;68.47;8.10;;;12.40;99.90;;;;;;5005205;28;20252;-83
2023/02/17 08:13:18;;;;;;;66.20;7.27;;;12.40;99.90;;;;;;5005514;28;20533;-84
2023/02/17 08:13:25;;;;;;;67.10;8.80;;;12.50;99.90;;;;;;5022590;28;20232;-82
2023/02/17 08:15:50;;;;;;;66.40;7.13;;;12.50;99.90;;;;;;5022500;28;20521;-83
2023/02/17 08:18:16;;;;;;;66.37;7.40;;;12.60;99.90;;;;;;5005412;28;20198;-84
2023/02/17 08:20:42;;;;;;;65.53;6.07;;;12.60;99.90;;;;;;5022189;28;20154;-83
2023/02/17 08:23:08;;;;;;;66.40;6.47;;;12.60;99.90;;;;;;5004411;28;20212;-83
2023/02/17 08:25:35;;;;;;;66.70;7.10;;;12.70;99.90;;;;;;5005119;28;20261;-83
2023/02/17 08:28:02;;;;;;;69.18;8.15;;;12.70;99.90;;;;;;5022633;28;20909;-83
2023/02/17 08:30:28;;;;;;;66.45;6.93;;;12.70;99.90;;;;;;5022786;28;20178;-84
2023/02/17 08:32:54;;;;;;;67.40;6.80;;;12.80;99.90;;;;;;5021891;28;20196;-83
2023/02/17 08:35:21;;;;;;;66.53;6.27;;;12.80;99.90;;;;;;5022139;28;20455;-83
2023/02/17 08:37:48;;;;;;;73.78;7.75;;;12.80;99.90;;;;;;5022144;28;20162;-84
2023/02/17 08:40:14;;;;;;;66.75;7.15;;;12.90;99.90;;;;;;5022440;28;20166;-83
2023/02/17 08:42:40;;;;;;;68.30;7.53;;;12.90;99.90;;;;;;5021506;28;20192;-84
2023/02/17 08:45:06;;;;;;;66.13;6.50;;;13.00;99.90;;;;;;5022029;28;20248;-84
2023/02/17 08:47:33;;;;;;;66.65;7.57;;;13.00;99.90;;;;;;5022158;28;20182;-84
2023/02/17 08:49:58;;;;;;;69.30;7.20;;;13.00;99.90;;;;;;5004668;28;20629;-83
2023/02/17 08:52:24;;;;;;;66.80;7.53;;;13.00;99.90;;;;;;5021365;28;20189;-84
2023/02/17 08:54:51;;;;;;;65.57;6.20;;;13.00;99.90;;;;;;5021635;28;20637;-84
2023/02/17 08:57:17;;;;;;;65.90;6.65;;;13.10;99.90;;;;;;5004140;28;20649;-84
2023/02/17 08:59:46;;;;;;;66.45;7.13;;;13.10;99.90;;;;;;5004479;28;20166;-84
2023/02/17 09:02:13;;;;;;;66.28;7.05;;;13.20;99.90;;;;;;5003916;28;20600;-83
2023/02/17 09:04:39;;;;;;;65.25;6.00;;;13.20;99.90;;;;;;5022257;28;20201;-84
2023/02/17 09:07:09;;;;;;;72.68;13.00;;;13.30;99.90;;;;;;5021235;28;20253;-85
2023/02/17 09:09:34;;;;;;;65.93;6.38;;;13.30;99.90;;;;;;5021025;28;20616;-84
2023/02/17 09:12:00;;;;;;;66.37;5.60;;;13.40;99.90;;;;;;5021386;28;20248;-84
2023/02/17 09:14:27;;;;;;;65.23;5.87;;;13.50;99.90;;;;;;5021239;28;20436;-84
2023/02/17 09:16:54;;;;;;;66.20;6.45;;;13.50;99.90;;;;;;5021791;28;20405;-84
2023/02/17 09:19:20;;;;;;;67.75;6.30;;;13.60;99.90;;;;;;5004032;28;20525;-84
2023/02/17 09:21:47;;;;;;;65.93;5.88;;;13.60;99.90;;;;;;5004107;28;20189;-84
2023/02/17 09:24:13;;;;;;;65.32;6.25;;;13.60;99.90;;;;;;5003769;28;20239;-84
2023/02/17 09:26:39;;;;;;;65.32;6.22;;;13.70;99.90;;;;;;5021210;28;20162;-84
2023/02/17 09:29:06;;;;;;;67.65;6.28;;;13.70;99.90;;;;;;5021246;28;20170;-84
2023/02/17 09:31:34;;;;;;;66.10;5.53;;;13.80;99.90;;;;;;5003489;28;20750;-84
2023/02/17 09:34:00;;;;;;;66.60;5.82;;;13.90;99.90;;;;;;5021626;28;20193;-84
2023/02/17 09:36:29;;;;;;;64.67;4.40;;;14.00;99.90;;;;;;5003475;28;20263;-84
2023/02/17 09:38:55;;;;;;;64.78;4.55;;;14.00;99.90;;;;;;5003584;28;20165;-84
2023/02/17 09:41:44;;;;;;;68.30;5.03;;;14.10;99.90;;;;;;5020791;28;20189;-84
2023/02/17 09:44:24;;;;;;;65.28;4.47;;;14.20;99.90;;;;;;5003380;28;20436;-84
2023/02/17 09:47:02;;;;;;;66.03;5.22;;;14.40;99.90;;;;;;5020893;28;20529;-84
2023/02/17 09:49:37;;;;;;;65.07;5.00;;;14.40;99.90;;;;;;5002781;28;20177;-84
2023/02/17 09:52:28;;;;;;;65.67;4.50;;;14.50;99.90;;;;;;5021054;28;20421;-84
2023/02/17 09:55:15;;;;;;;67.73;4.80;;;14.60;99.90;;;;;;5021473;28;20397;-84
2023/02/17 09:58:05;;;;;;;66.37;5.10;;;14.60;99.90;;;;;;5003238;28;20854;-84
2023/02/17 10:00:36;;;;;;;65.33;4.53;;;14.70;99.90;;;;;;5011238;28;20408;-84
2023/02/17 10:03:19;;;;;;;66.57;4.60;;;14.70;99.90;;;;;;5003360;28;20416;-84
2023/02/17 10:05:52;;;;;;;65.07;4.60;;;14.80;99.90;;;;;;5021163;28;20401;-84
2023/02/17 10:08:25;;;;;;;64.33;4.20;;;14.90;99.90;;;;;;5002926;28;20397;-84
2023/02/17 10:11:00;;;;;;;64.97;4.20;;;15.00;99.90;;;;;;5020288;28;20397;-84
2023/02/17 10:13:30;;;;;;;64.47;5.13;;;15.00;99.50;;;;;;5020619;28;20420;-84
2023/02/17 10:16:02;;;;;;;64.93;4.53;;;15.10;98.60;;;;;;5021169;28;20400;-84
2023/02/17 10:18:40;;;;;;;64.70;5.10;;;15.20;99.30;;;;;;5020204;28;20378;-83
2023/02/17 10:21:22;;;;;;;65.03;5.43;;;15.30;96.60;;;;;;5020887;28;20420;-84
2023/02/17 10:23:50;;;;;;;65.90;5.20;;;15.40;96.60;;;;;;5021233;28;20385;-83
2023/02/17 10:26:33;;;;;;;65.87;5.33;;;15.50;95.40;;;;;;5002722;28;20420;-85
2023/02/17 10:29:18;;;;;;;73.30;5.60;;;15.60;94.10;;;;;;5019936;28;20495;-84
2023/02/17 10:31:55;;;;;;;64.57;5.20;;;15.60;83.70;;;;;;5002814;28;20789;-82
2023/02/17 10:34:41;;;;;;;66.93;6.17;;;15.50;85.80;;;;;;5001686;28;20451;-83
2023/02/17 10:37:32;;;;;;;65.20;4.50;;;15.50;81.80;;;;;;5019598;28;20381;-82
2023/02/17 10:40:02;;;;;;;65.70;5.20;;;15.50;85.40;;;;;;5002227;28;20420;-83
2023/02/17 10:42:35;;;;;;;66.13;5.40;;;15.60;83.70;;;;;;5020295;28;20425;-84
2023/02/17 10:45:11;;;;;;;66.00;5.03;;;15.70;82.80;;;;;;5002094;28;20472;-83
2023/02/17 10:47:46;;;;;;;65.10;5.17;;;15.80;79.10;;;;;;5002185;28;20471;-83
2023/02/17 10:50:46;;;;;;;65.07;5.07;;;15.90;79.00;;;;;;5020468;28;20427;-84
2023/02/17 10:53:28;;;;;;;66.03;5.27;;;16.00;74.20;;;;;;5009250;28;20457;-84
2023/02/17 10:56:08;;;;;;;64.90;4.10;;;16.10;74.40;;;;;;5020125;28;20376;-84
2023/02/17 10:58:51;;;;;;;66.43;5.10;;;16.10;65.20;;;;;;5002609;28;20476;-84
2023/02/17 11:01:17;;;;;;;64.17;4.80;;;16.10;65.80;;;;;;5019671;28;20420;-84
2023/02/17 11:03:43;;;;;;;66.20;5.10;;;16.00;70.00;;;;;;5001675;28;20405;-83
2023/02/17 11:06:21;;;;;;;65.40;4.70;;;16.10;71.50;;;;;;5019396;28;20428;-84
2023/02/17 11:08:54;;;;;;;64.47;4.43;;;16.10;71.50;;;;;;5019472;28;20172;-83
2023/02/17 11:11:26;;;;;;;66.17;5.33;;;16.00;72.70;;;;;;5001799;28;20429;-84
2023/02/17 11:14:06;;;;;;;65.73;7.37;;;16.00;71.90;;;;;;5019550;28;20444;-85
2023/02/17 11:16:44;;;;;;;65.73;5.53;;;16.00;69.30;;;;;;5019285;28;20877;-84
2023/02/17 11:19:26;;;;;;;65.30;5.50;;;16.10;70.60;;;;;;5001862;28;20410;-84
2023/02/17 11:21:54;;;;;;;64.57;5.47;;;16.10;67.50;;;;;;5019142;28;20417;-84
2023/02/17 11:24:20;;;;;;;66.00;6.37;;;16.10;71.00;;;;;;5020457;28;20872;-85
2023/02/17 11:26:59;;;;;;;64.97;5.70;;;16.10;61.80;;;;;;5019170;28;20414;-84
2023/02/17 11:29:25;;;;;;;65.87;5.70;;;16.00;72.20;;;;;;5019379;28;20150;-84
2023/02/17 11:32:22;;;;;;;65.47;5.33;;;16.00;71.90;;;;;;5019491;28;20421;-84
2023/02/17 11:34:59;;;;;;;66.00;4.83;;;16.00;73.00;;;;;;5017035;28;20428;-84
2023/02/17 11:37:26;;;;;;;64.60;5.00;;;16.00;72.70;;;;;;5020197;28;20412;-84
2023/02/17 11:39:54;;;;;;;65.57;5.20;;;15.90;76.70;;;;;;5019368;28;20912;-83
2023/02/17 11:42:25;;;;;;;67.80;5.17;;;15.90;77.80;;;;;;5001930;28;20429;-84
2023/02/17 11:44:54;;;;;;;65.57;5.37;;;15.90;75.90;;;;;;5001378;28;20403;-83
2023/02/17 11:47:34;;;;;;;65.17;4.80;;;15.90;82.00;;;;;;5019214;28;20807;-84
2023/02/17 11:50:21;;;;;;;68.70;5.00;;;15.90;84.20;;;;;;5019188;28;20447;-84
2023/02/17 11:53:12;;;;;;;72.17;12.33;;;15.90;82.00;;;;;;5001933;28;20456;-85
2023/02/17 11:56:09;;;;;;;64.90;5.23;;;16.00;76.40;;;;;;5019271;28;20873;-84
2023/02/17 11:58:44;;;;;;;65.77;6.70;;;16.10;75.30;;;;;;4998552;28;20408;-84
2023/02/17 12:01:47;;;;;;;65.37;5.30;;;16.20;68.90;;;;;;5019227;28;20435;-82
2023/02/17 12:04:16;;;;;;;65.70;5.37;;;16.30;73.60;;;;;;5019264;28;20942;-83
2023/02/17 12:06:47;;;;;;;66.57;5.40;;;16.40;69.10;;;;;;5001433;28;20815;-82
2023/02/17 12:09:37;;;;;;;66.57;6.00;;;16.30;65.20;;;;;;5001340;28;20552;-82
2023/02/17 12:12:22;;;;;;;65.07;5.83;;;16.20;65.10;;;;;;5018487;28;20432;-85
2023/02/17 12:15:22;;;;;;;66.73;7.00;;;16.20;63.50;;;;;;5001765;28;20419;-84
2023/02/17 12:18:08;;;;;;;64.30;5.13;;;16.10;68.40;;;;;;5019461;28;20842;-85
2023/02/17 12:20:41;;;;;;;65.83;6.20;;;16.10;72.30;;;;;;5019324;28;20381;-84
2023/02/17 12:23:28;;;;;;;64.40;5.20;;;16.20;71.10;;;;;;5019462;28;20417;-84
2023/02/17 12:26:24;;;;;;;68.83;5.17;;;16.40;69.60;;;;;;5019078;28;20373;-85
2023/02/17 12:29:16;;;;;;;65.40;6.57;;;16.50;65.20;;;;;;5001520;28;20404;-84
2023/02/17 12:32:06;;;;;;;66.40;5.90;;;16.60;55.00;;;;;;5001387;28;20425;-85
2023/02/17 12:34:32;;;;;;;65.80;7.63;;;16.40;55.50;;;;;;5019234;28;20441;-83
2023/02/17 12:36:59;;;;;;;66.67;6.47;;;16.40;53.60;;;;;;5001743;28;20459;-84
2023/02/17 12:39:31;;;;;;;65.80;6.50;;;16.40;54.30;;;;;;5001193;28;20166;-84
2023/02/17 12:42:21;;;;;;;66.20;6.73;;;16.50;55.50;;;;;;5022093;28;20413;-84
2023/02/17 12:44:51;;;;;;;66.40;7.53;;;16.50;55.70;;;;;;5004652;28;20408;-83
2023/02/17 12:47:32;;;;;;;71.17;10.23;;;16.60;55.50;;;;;;5022480;28;20410;-84
2023/02/17 12:50:13;;;;;;;68.40;6.80;;;16.50;49.40;;;;;;5022107;28;20517;-84
2023/02/17 12:52:43;;;;;;;66.50;6.90;;;16.50;50.70;;;;;;5004586;28;20434;-83
2023/02/17 12:55:17;;;;;;;66.63;6.90;;;16.60;50.60;;;;;;5022172;28;20406;-84